sensor_id;sensor_type;location;lat;lon;timestamp;P1;durP1;ratioP1;P2;durP2;ratioP2
48727;SDS011;34527;45.618;5.130;2024-03-23T00:53:41;10.57;;;6.43;;
48727;SDS011;34527;45.618;5.130;2024-03-23T00:56:07;13.65;;;6.35;;
48727;SDS011;34527;45.618;5.130;2024-03-23T00:58:33;10.32;;;6.75;;
48727;SDS011;34527;45.618;5.130;2024-03-23T01:00:58;7.47;;;6.22;;
48727;SDS011;34527;45.618;5.130;2024-03-23T01:03:24;11.27;;;6.60;;
48727;SDS011;34527;45.618;5.130;2024-03-23T01:05:50;8.85;;;6.00;;
48727;SDS011;34527;45.618;5.130;2024-03-23T01:08:15;7.15;;;5.63;;
48727;SDS011;34527;45.618;5.130;2024-03-23T01:10:41;10.40;;;6.28;;
48727;SDS011;34527;45.618;5.130;2024-03-23T01:13:06;9.35;;;6.53;;
48727;SDS011;34527;45.618;5.130;2024-03-23T01:15:32;7.60;;;6.18;;
48727;SDS011;34527;45.618;5.130;2024-03-23T01:17:58;12.30;;;5.72;;
48727;SDS011;34527;45.618;5.130;2024-03-23T01:20:23;9.98;;;6.78;;
48727;SDS011;34527;45.618;5.130;2024-03-23T01:22:49;10.50;;;6.38;;
48727;SDS011;34527;45.618;5.130;2024-03-23T01:25:14;11.57;;;7.35;;
48727;SDS011;34527;45.618;5.130;2024-03-23T01:27:40;10.65;;;6.25;;
48727;SDS011;34527;45.618;5.130;2024-03-23T01:30:06;10.88;;;6.55;;
48727;SDS011;34527;45.618;5.130;2024-03-23T01:32:32;10.90;;;6.80;;
48727;SDS011;34527;45.618;5.130;2024-03-23T01:34:58;9.65;;;6.57;;
48727;SDS011;34527;45.618;5.130;2024-03-23T01:37:23;11.57;;;7.10;;
48727;SDS011;34527;45.618;5.130;2024-03-23T01:39:49;10.07;;;6.50;;
48727;SDS011;34527;45.618;5.130;2024-03-23T01:42:15;9.80;;;6.47;;
48727;SDS011;34527;45.618;5.130;2024-03-23T01:44:40;10.38;;;6.30;;
48727;SDS011;34527;45.618;5.130;2024-03-23T01:47:06;8.88;;;6.43;;
48727;SDS011;34527;45.618;5.130;2024-03-23T01:49:32;9.73;;;6.30;;
48727;SDS011;34527;45.618;5.130;2024-03-23T01:51:58;8.80;;;6.60;;
48727;SDS011;34527;45.618;5.130;2024-03-23T01:54:24;9.77;;;6.35;;
48727;SDS011;34527;45.618;5.130;2024-03-23T01:56:50;7.70;;;6.40;;
48727;SDS011;34527;45.618;5.130;2024-03-23T01:59:16;11.95;;;6.63;;
48727;SDS011;34527;45.618;5.130;2024-03-23T02:01:42;9.43;;;6.25;;
48727;SDS011;34527;45.618;5.130;2024-03-23T02:04:07;15.65;;;7.15;;
48727;SDS011;34527;45.618;5.130;2024-03-23T02:06:34;12.15;;;7.13;;
48727;SDS011;34527;45.618;5.130;2024-03-23T02:09:00;8.80;;;6.68;;
48727;SDS011;34527;45.618;5.130;2024-03-23T02:11:26;12.63;;;6.57;;
48727;SDS011;34527;45.618;5.130;2024-03-23T02:13:51;9.90;;;6.90;;
48727;SDS011;34527;45.618;5.130;2024-03-23T02:16:17;7.45;;;5.72;;
48727;SDS011;34527;45.618;5.130;2024-03-23T02:18:42;10.48;;;6.80;;
48727;SDS011;34527;45.618;5.130;2024-03-23T02:21:08;14.90;;;6.53;;
48727;SDS011;34527;45.618;5.130;2024-03-23T02:23:34;10.93;;;6.97;;
48727;SDS011;34527;45.618;5.130;2024-03-23T02:25:59;9.45;;;6.93;;
48727;SDS011;34527;45.618;5.130;2024-03-23T02:28:25;10.00;;;6.50;;
48727;SDS011;34527;45.618;5.130;2024-03-23T02:30:51;9.85;;;7.22;;
48727;SDS011;34527;45.618;5.130;2024-03-23T02:33:17;11.90;;;7.20;;
48727;SDS011;34527;45.618;5.130;2024-03-23T02:35:46;11.15;;;7.03;;
48727;SDS011;34527;45.618;5.130;2024-03-23T02:38:12;14.40;;;7.60;;
48727;SDS011;34527;45.618;5.130;2024-03-23T02:40:37;11.07;;;7.60;;
48727;SDS011;34527;45.618;5.130;2024-03-23T02:43:03;9.98;;;7.25;;
48727;SDS011;34527;45.618;5.130;2024-03-23T02:45:29;13.65;;;8.48;;
48727;SDS011;34527;45.618;5.130;2024-03-23T02:47:55;11.23;;;7.50;;
48727;SDS011;34527;45.618;5.130;2024-03-23T02:50:20;11.18;;;8.10;;
48727;SDS011;34527;45.618;5.130;2024-03-23T02:52:46;14.48;;;7.97;;
48727;SDS011;34527;45.618;5.130;2024-03-23T02:55:12;15.43;;;8.27;;
48727;SDS011;34527;45.618;5.130;2024-03-23T02:57:38;10.63;;;8.05;;
48727;SDS011;34527;45.618;5.130;2024-03-23T03:00:04;9.48;;;7.25;;
48727;SDS011;34527;45.618;5.130;2024-03-23T03:02:31;17.63;;;9.20;;
48727;SDS011;34527;45.618;5.130;2024-03-23T03:04:57;12.55;;;8.20;;
48727;SDS011;34527;45.618;5.130;2024-03-23T03:07:23;11.23;;;8.15;;
48727;SDS011;34527;45.618;5.130;2024-03-23T03:09:48;15.52;;;8.43;;
48727;SDS011;34527;45.618;5.130;2024-03-23T03:12:14;12.63;;;7.85;;
48727;SDS011;34527;45.618;5.130;2024-03-23T03:14:39;12.20;;;8.30;;
48727;SDS011;34527;45.618;5.130;2024-03-23T03:17:05;12.63;;;7.72;;
48727;SDS011;34527;45.618;5.130;2024-03-23T03:19:31;11.70;;;8.13;;
48727;SDS011;34527;45.618;5.130;2024-03-23T03:21:57;11.80;;;7.60;;
48727;SDS011;34527;45.618;5.130;2024-03-23T03:24:23;14.25;;;8.35;;
48727;SDS011;34527;45.618;5.130;2024-03-23T03:26:48;13.85;;;8.15;;
48727;SDS011;34527;45.618;5.130;2024-03-23T03:29:15;9.95;;;7.95;;
48727;SDS011;34527;45.618;5.130;2024-03-23T03:31:40;12.75;;;8.60;;
48727;SDS011;34527;45.618;5.130;2024-03-23T03:34:06;12.93;;;8.05;;
48727;SDS011;34527;45.618;5.130;2024-03-23T03:36:31;12.48;;;7.95;;
48727;SDS011;34527;45.618;5.130;2024-03-23T03:38:57;16.08;;;9.02;;
48727;SDS011;34527;45.618;5.130;2024-03-23T03:41:23;14.88;;;9.05;;
48727;SDS011;34527;45.618;5.130;2024-03-23T03:43:48;12.60;;;8.68;;
48727;SDS011;34527;45.618;5.130;2024-03-23T03:46:14;12.52;;;8.63;;
48727;SDS011;34527;45.618;5.130;2024-03-23T03:48:39;11.55;;;7.95;;
48727;SDS011;34527;45.618;5.130;2024-03-23T03:51:05;15.50;;;8.85;;
48727;SDS011;34527;45.618;5.130;2024-03-23T03:53:30;14.30;;;8.55;;
48727;SDS011;34527;45.618;5.130;2024-03-23T03:55:56;12.43;;;8.02;;
48727;SDS011;34527;45.618;5.130;2024-03-23T03:58:25;12.35;;;8.38;;
48727;SDS011;34527;45.618;5.130;2024-03-23T04:00:51;11.18;;;8.05;;
48727;SDS011;34527;45.618;5.130;2024-03-23T04:03:16;15.18;;;8.77;;
48727;SDS011;34527;45.618;5.130;2024-03-23T04:05:42;11.98;;;8.60;;
48727;SDS011;34527;45.618;5.130;2024-03-23T04:08:08;12.23;;;8.68;;
48727;SDS011;34527;45.618;5.130;2024-03-23T04:10:33;13.90;;;9.40;;
48727;SDS011;34527;45.618;5.130;2024-03-23T04:12:59;13.05;;;9.27;;
48727;SDS011;34527;45.618;5.130;2024-03-23T04:15:25;16.75;;;10.20;;
48727;SDS011;34527;45.618;5.130;2024-03-23T04:17:51;14.35;;;9.35;;
48727;SDS011;34527;45.618;5.130;2024-03-23T04:20:17;13.05;;;9.50;;
48727;SDS011;34527;45.618;5.130;2024-03-23T04:22:43;14.27;;;9.95;;
48727;SDS011;34527;45.618;5.130;2024-03-23T04:25:08;14.77;;;9.68;;
48727;SDS011;34527;45.618;5.130;2024-03-23T04:27:38;13.93;;;9.13;;
48727;SDS011;34527;45.618;5.130;2024-03-23T04:30:04;12.75;;;8.77;;
48727;SDS011;34527;45.618;5.130;2024-03-23T04:32:35;14.93;;;10.55;;
48727;SDS011;34527;45.618;5.130;2024-03-23T04:35:04;14.75;;;10.02;;
48727;SDS011;34527;45.618;5.130;2024-03-23T04:37:36;13.68;;;10.18;;
48727;SDS011;34527;45.618;5.130;2024-03-23T04:40:03;15.80;;;9.90;;
48727;SDS011;34527;45.618;5.130;2024-03-23T04:42:29;15.40;;;9.93;;
48727;SDS011;34527;45.618;5.130;2024-03-23T04:44:56;12.48;;;9.77;;
48727;SDS011;34527;45.618;5.130;2024-03-23T04:47:21;15.30;;;10.27;;
48727;SDS011;34527;45.618;5.130;2024-03-23T04:49:47;14.23;;;10.10;;
48727;SDS011;34527;45.618;5.130;2024-03-23T04:52:13;16.92;;;10.90;;
48727;SDS011;34527;45.618;5.130;2024-03-23T04:54:39;18.30;;;11.32;;
48727;SDS011;34527;45.618;5.130;2024-03-23T04:57:05;17.80;;;10.60;;
48727;SDS011;34527;45.618;5.130;2024-03-23T04:59:31;15.98;;;11.10;;
48727;SDS011;34527;45.618;5.130;2024-03-23T05:01:57;17.33;;;11.30;;
48727;SDS011;34527;45.618;5.130;2024-03-23T05:04:22;22.83;;;11.63;;
48727;SDS011;34527;45.618;5.130;2024-03-23T05:06:48;18.88;;;12.07;;
48727;SDS011;34527;45.618;5.130;2024-03-23T05:09:14;14.65;;;11.30;;
48727;SDS011;34527;45.618;5.130;2024-03-23T05:11:39;15.68;;;10.95;;
48727;SDS011;34527;45.618;5.130;2024-03-23T05:14:06;14.93;;;11.75;;
48727;SDS011;34527;45.618;5.130;2024-03-23T05:16:32;15.10;;;11.25;;
48727;SDS011;34527;45.618;5.130;2024-03-23T05:18:58;15.25;;;11.30;;
48727;SDS011;34527;45.618;5.130;2024-03-23T05:21:24;16.67;;;11.52;;
48727;SDS011;34527;45.618;5.130;2024-03-23T05:23:49;20.60;;;11.52;;
48727;SDS011;34527;45.618;5.130;2024-03-23T05:26:16;17.40;;;12.13;;
48727;SDS011;34527;45.618;5.130;2024-03-23T05:28:42;17.10;;;11.05;;
48727;SDS011;34527;45.618;5.130;2024-03-23T05:31:08;14.90;;;10.20;;
48727;SDS011;34527;45.618;5.130;2024-03-23T05:33:35;12.68;;;9.48;;
48727;SDS011;34527;45.618;5.130;2024-03-23T05:36:03;14.95;;;9.57;;
48727;SDS011;34527;45.618;5.130;2024-03-23T05:38:29;13.15;;;10.10;;
48727;SDS011;34527;45.618;5.130;2024-03-23T05:40:55;14.70;;;10.27;;
48727;SDS011;34527;45.618;5.130;2024-03-23T05:43:22;14.60;;;9.50;;
48727;SDS011;34527;45.618;5.130;2024-03-23T05:45:58;13.55;;;9.13;;
48727;SDS011;34527;45.618;5.130;2024-03-23T05:48:28;13.93;;;8.93;;
48727;SDS011;34527;45.618;5.130;2024-03-23T05:50:55;12.57;;;8.63;;
48727;SDS011;34527;45.618;5.130;2024-03-23T05:53:21;10.20;;;8.05;;
48727;SDS011;34527;45.618;5.130;2024-03-23T05:55:48;7.72;;;6.93;;
48727;SDS011;34527;45.618;5.130;2024-03-23T05:58:15;9.50;;;7.20;;
48727;SDS011;34527;45.618;5.130;2024-03-23T06:00:41;8.80;;;7.25;;
48727;SDS011;34527;45.618;5.130;2024-03-23T06:03:08;8.32;;;7.30;;
48727;SDS011;34527;45.618;5.130;2024-03-23T06:05:34;11.20;;;7.47;;
48727;SDS011;34527;45.618;5.130;2024-03-23T06:07:59;8.25;;;6.65;;
48727;SDS011;34527;45.618;5.130;2024-03-23T06:10:25;13.25;;;8.50;;
48727;SDS011;34527;45.618;5.130;2024-03-23T06:12:50;9.80;;;7.65;;
48727;SDS011;34527;45.618;5.130;2024-03-23T06:15:17;9.82;;;7.75;;
48727;SDS011;34527;45.618;5.130;2024-03-23T06:17:44;11.35;;;7.43;;
48727;SDS011;34527;45.618;5.130;2024-03-23T06:20:09;10.80;;;8.23;;
48727;SDS011;34527;45.618;5.130;2024-03-23T06:22:35;9.93;;;8.05;;
48727;SDS011;34527;45.618;5.130;2024-03-23T06:25:01;10.75;;;7.97;;
48727;SDS011;34527;45.618;5.130;2024-03-23T06:27:27;11.40;;;8.50;;
48727;SDS011;34527;45.618;5.130;2024-03-23T06:29:53;11.02;;;8.52;;
48727;SDS011;34527;45.618;5.130;2024-03-23T06:32:19;9.23;;;8.23;;
48727;SDS011;34527;45.618;5.130;2024-03-23T06:34:45;10.68;;;8.25;;
48727;SDS011;34527;45.618;5.130;2024-03-23T06:37:11;11.50;;;8.98;;
48727;SDS011;34527;45.618;5.130;2024-03-23T06:39:36;11.63;;;8.77;;
48727;SDS011;34527;45.618;5.130;2024-03-23T06:42:02;9.60;;;8.52;;
48727;SDS011;34527;45.618;5.130;2024-03-23T06:44:28;9.32;;;8.25;;
48727;SDS011;34527;45.618;5.130;2024-03-23T06:46:55;8.75;;;7.50;;
48727;SDS011;34527;45.618;5.130;2024-03-23T06:49:20;8.40;;;6.57;;
48727;SDS011;34527;45.618;5.130;2024-03-23T06:51:47;6.88;;;4.60;;
48727;SDS011;34527;45.618;5.130;2024-03-23T06:54:13;6.50;;;4.00;;
48727;SDS011;34527;45.618;5.130;2024-03-23T06:56:38;8.35;;;3.00;;
48727;SDS011;34527;45.618;5.130;2024-03-23T06:59:04;2.83;;;2.08;;
48727;SDS011;34527;45.618;5.130;2024-03-23T07:01:30;4.75;;;2.15;;
48727;SDS011;34527;45.618;5.130;2024-03-23T07:03:55;3.50;;;2.03;;
48727;SDS011;34527;45.618;5.130;2024-03-23T07:06:21;6.32;;;1.40;;
48727;SDS011;34527;45.618;5.130;2024-03-23T07:08:46;3.58;;;1.50;;
48727;SDS011;34527;45.618;5.130;2024-03-23T07:11:17;1.88;;;1.17;;
48727;SDS011;34527;45.618;5.130;2024-03-23T07:13:46;4.63;;;1.27;;
48727;SDS011;34527;45.618;5.130;2024-03-23T07:16:14;1.10;;;1.00;;
48727;SDS011;34527;45.618;5.130;2024-03-23T07:18:39;2.88;;;0.98;;
48727;SDS011;34527;45.618;5.130;2024-03-23T07:21:05;0.90;;;0.80;;
48727;SDS011;34527;45.618;5.130;2024-03-23T07:23:32;1.42;;;1.00;;
48727;SDS011;34527;45.618;5.130;2024-03-23T07:28:23;6.03;;;1.10;;
48727;SDS011;34527;45.618;5.130;2024-03-23T07:31:00;5.60;;;1.30;;
48727;SDS011;34527;45.618;5.130;2024-03-23T07:33:25;5.47;;;1.35;;
48727;SDS011;34527;45.618;5.130;2024-03-23T07:35:51;3.30;;;1.10;;
48727;SDS011;34527;45.618;5.130;2024-03-23T07:38:17;5.00;;;1.10;;
48727;SDS011;34527;45.618;5.130;2024-03-23T07:40:42;9.05;;;1.40;;
48727;SDS011;34527;45.618;5.130;2024-03-23T07:43:08;7.18;;;1.38;;
48727;SDS011;34527;45.618;5.130;2024-03-23T07:45:33;2.67;;;0.95;;
48727;SDS011;34527;45.618;5.130;2024-03-23T07:47:59;9.43;;;1.55;;
48727;SDS011;34527;45.618;5.130;2024-03-23T07:50:24;6.07;;;1.65;;
48727;SDS011;34527;45.618;5.130;2024-03-23T07:52:50;8.05;;;1.70;;
48727;SDS011;34527;45.618;5.130;2024-03-23T07:55:16;6.63;;;1.70;;
48727;SDS011;34527;45.618;5.130;2024-03-23T07:57:41;8.70;;;2.22;;
48727;SDS011;34527;45.618;5.130;2024-03-23T08:00:07;7.65;;;2.03;;
48727;SDS011;34527;45.618;5.130;2024-03-23T08:02:33;13.27;;;2.30;;
48727;SDS011;34527;45.618;5.130;2024-03-23T08:04:59;8.27;;;2.47;;
48727;SDS011;34527;45.618;5.130;2024-03-23T08:07:25;12.82;;;2.42;;
48727;SDS011;34527;45.618;5.130;2024-03-23T08:09:50;10.20;;;2.15;;
48727;SDS011;34527;45.618;5.130;2024-03-23T08:12:16;11.38;;;2.15;;
48727;SDS011;34527;45.618;5.130;2024-03-23T08:14:41;8.27;;;2.05;;
48727;SDS011;34527;45.618;5.130;2024-03-23T08:17:07;15.68;;;2.25;;
48727;SDS011;34527;45.618;5.130;2024-03-23T08:19:33;8.15;;;2.40;;
48727;SDS011;34527;45.618;5.130;2024-03-23T08:21:58;10.10;;;2.17;;
48727;SDS011;34527;45.618;5.130;2024-03-23T08:24:24;9.52;;;2.10;;
48727;SDS011;34527;45.618;5.130;2024-03-23T08:26:49;7.72;;;1.92;;
48727;SDS011;34527;45.618;5.130;2024-03-23T08:29:15;10.35;;;1.80;;
48727;SDS011;34527;45.618;5.130;2024-03-23T08:31:41;8.00;;;1.92;;
48727;SDS011;34527;45.618;5.130;2024-03-23T08:34:06;8.18;;;1.75;;
48727;SDS011;34527;45.618;5.130;2024-03-23T08:36:32;9.75;;;1.90;;
48727;SDS011;34527;45.618;5.130;2024-03-23T08:38:57;9.63;;;1.85;;
48727;SDS011;34527;45.618;5.130;2024-03-23T08:41:23;5.60;;;2.30;;
48727;SDS011;34527;45.618;5.130;2024-03-23T08:43:49;7.65;;;2.00;;
48727;SDS011;34527;45.618;5.130;2024-03-23T08:46:15;8.65;;;1.85;;
48727;SDS011;34527;45.618;5.130;2024-03-23T08:48:41;8.25;;;2.13;;
48727;SDS011;34527;45.618;5.130;2024-03-23T08:51:09;6.13;;;1.33;;
48727;SDS011;34527;45.618;5.130;2024-03-23T08:53:35;8.60;;;1.85;;
48727;SDS011;34527;45.618;5.130;2024-03-23T08:56:02;6.68;;;1.65;;
48727;SDS011;34527;45.618;5.130;2024-03-23T08:58:29;14.85;;;2.28;;
48727;SDS011;34527;45.618;5.130;2024-03-23T09:00:56;7.35;;;1.83;;
48727;SDS011;34527;45.618;5.130;2024-03-23T09:03:24;7.65;;;1.98;;
48727;SDS011;34527;45.618;5.130;2024-03-23T09:05:51;9.20;;;2.13;;
48727;SDS011;34527;45.618;5.130;2024-03-23T09:08:17;9.77;;;2.00;;
48727;SDS011;34527;45.618;5.130;2024-03-23T09:10:43;8.30;;;2.63;;
48727;SDS011;34527;45.618;5.130;2024-03-23T09:13:09;6.88;;;1.67;;
48727;SDS011;34527;45.618;5.130;2024-03-23T09:15:36;8.27;;;1.73;;
48727;SDS011;34527;45.618;5.130;2024-03-23T09:18:03;9.77;;;2.80;;
48727;SDS011;34527;45.618;5.130;2024-03-23T09:20:29;10.15;;;2.35;;
48727;SDS011;34527;45.618;5.130;2024-03-23T09:22:58;8.65;;;1.70;;
48727;SDS011;34527;45.618;5.130;2024-03-23T09:25:23;7.57;;;2.00;;
48727;SDS011;34527;45.618;5.130;2024-03-23T09:27:49;7.85;;;1.83;;
48727;SDS011;34527;45.618;5.130;2024-03-23T09:30:15;6.97;;;1.77;;
48727;SDS011;34527;45.618;5.130;2024-03-23T09:32:42;11.77;;;2.10;;
48727;SDS011;34527;45.618;5.130;2024-03-23T09:35:08;8.75;;;2.03;;
48727;SDS011;34527;45.618;5.130;2024-03-23T09:37:35;9.18;;;1.80;;
48727;SDS011;34527;45.618;5.130;2024-03-23T09:40:00;11.30;;;2.10;;
48727;SDS011;34527;45.618;5.130;2024-03-23T09:42:27;7.93;;;1.80;;
48727;SDS011;34527;45.618;5.130;2024-03-23T09:44:52;7.68;;;1.80;;
48727;SDS011;34527;45.618;5.130;2024-03-23T09:47:19;6.38;;;1.70;;
48727;SDS011;34527;45.618;5.130;2024-03-23T09:49:44;6.70;;;1.63;;
48727;SDS011;34527;45.618;5.130;2024-03-23T09:52:10;8.02;;;2.20;;
48727;SDS011;34527;45.618;5.130;2024-03-23T09:54:36;7.07;;;1.75;;
48727;SDS011;34527;45.618;5.130;2024-03-23T09:57:01;4.93;;;1.75;;
48727;SDS011;34527;45.618;5.130;2024-03-23T09:59:28;7.78;;;1.90;;
48727;SDS011;34527;45.618;5.130;2024-03-23T10:01:54;10.30;;;1.88;;
48727;SDS011;34527;45.618;5.130;2024-03-23T10:04:39;5.85;;;1.60;;
48727;SDS011;34527;45.618;5.130;2024-03-23T10:07:17;8.80;;;1.88;;
48727;SDS011;34527;45.618;5.130;2024-03-23T10:09:44;12.68;;;2.08;;
48727;SDS011;34527;45.618;5.130;2024-03-23T10:12:16;7.57;;;1.63;;
48727;SDS011;34527;45.618;5.130;2024-03-23T10:14:43;7.38;;;2.10;;
48727;SDS011;34527;45.618;5.130;2024-03-23T10:19:42;6.43;;;2.00;;
48727;SDS011;34527;45.618;5.130;2024-03-23T10:22:19;3.20;;;1.10;;
48727;SDS011;34527;45.618;5.130;2024-03-23T10:24:46;4.40;;;1.40;;
48727;SDS011;34527;45.618;5.130;2024-03-23T10:27:16;4.82;;;1.75;;
48727;SDS011;34527;45.618;5.130;2024-03-23T10:29:46;6.43;;;1.58;;
48727;SDS011;34527;45.618;5.130;2024-03-23T10:32:13;5.95;;;1.38;;
48727;SDS011;34527;45.618;5.130;2024-03-23T10:34:39;4.18;;;1.33;;
48727;SDS011;34527;45.618;5.130;2024-03-23T10:37:05;3.95;;;1.25;;
48727;SDS011;34527;45.618;5.130;2024-03-23T10:39:33;2.38;;;1.20;;
48727;SDS011;34527;45.618;5.130;2024-03-23T10:42:04;4.88;;;1.30;;
48727;SDS011;34527;45.618;5.130;2024-03-23T10:44:31;5.65;;;1.40;;
48727;SDS011;34527;45.618;5.130;2024-03-23T10:47:03;4.10;;;1.48;;
48727;SDS011;34527;45.618;5.130;2024-03-23T10:49:30;7.47;;;1.40;;
48727;SDS011;34527;45.618;5.130;2024-03-23T10:52:00;4.90;;;1.10;;
48727;SDS011;34527;45.618;5.130;2024-03-23T10:54:30;6.95;;;1.60;;
48727;SDS011;34527;45.618;5.130;2024-03-23T10:56:57;5.30;;;1.52;;
48727;SDS011;34527;45.618;5.130;2024-03-23T10:59:28;5.50;;;1.42;;
48727;SDS011;34527;45.618;5.130;2024-03-23T11:01:56;3.08;;;1.10;;
48727;SDS011;34527;45.618;5.130;2024-03-23T11:04:30;4.82;;;1.55;;
48727;SDS011;34527;45.618;5.130;2024-03-23T11:06:56;6.75;;;1.27;;
48727;SDS011;34527;45.618;5.130;2024-03-23T11:09:38;5.03;;;1.08;;
48727;SDS011;34527;45.618;5.130;2024-03-23T11:14:51;6.38;;;1.50;;
48727;SDS011;34527;45.618;5.130;2024-03-23T11:17:22;6.60;;;1.40;;
48727;SDS011;34527;45.618;5.130;2024-03-23T11:22:40;6.13;;;1.73;;
48727;SDS011;34527;45.618;5.130;2024-03-23T11:25:21;3.88;;;1.33;;
48727;SDS011;34527;45.618;5.130;2024-03-23T11:27:57;5.97;;;1.30;;
48727;SDS011;34527;45.618;5.130;2024-03-23T11:30:35;4.33;;;1.40;;
48727;SDS011;34527;45.618;5.130;2024-03-23T11:33:02;5.20;;;1.08;;
48727;SDS011;34527;45.618;5.130;2024-03-23T11:35:28;6.03;;;1.70;;
48727;SDS011;34527;45.618;5.130;2024-03-23T11:40:33;3.55;;;1.30;;
48727;SDS011;34527;45.618;5.130;2024-03-23T11:43:04;3.63;;;1.20;;
48727;SDS011;34527;45.618;5.130;2024-03-23T11:45:49;6.82;;;2.03;;
48727;SDS011;34527;45.618;5.130;2024-03-23T11:48:20;5.15;;;1.25;;
48727;SDS011;34527;45.618;5.130;2024-03-23T11:50:50;4.57;;;1.20;;
48727;SDS011;34527;45.618;5.130;2024-03-23T11:53:20;5.88;;;1.75;;
48727;SDS011;34527;45.618;5.130;2024-03-23T11:58:17;2.03;;;1.10;;
48727;SDS011;34527;45.618;5.130;2024-03-23T12:03:23;2.58;;;1.27;;
48727;SDS011;34527;45.618;5.130;2024-03-23T12:06:00;2.60;;;1.20;;
48727;SDS011;34527;45.618;5.130;2024-03-23T12:08:33;4.95;;;1.15;;
48727;SDS011;34527;45.618;5.130;2024-03-23T12:11:10;2.13;;;0.85;;
48727;SDS011;34527;45.618;5.130;2024-03-23T12:13:37;3.50;;;1.10;;
48727;SDS011;34527;45.618;5.130;2024-03-23T12:16:09;3.38;;;1.10;;
48727;SDS011;34527;45.618;5.130;2024-03-23T12:18:39;5.95;;;1.38;;
48727;SDS011;34527;45.618;5.130;2024-03-23T12:21:06;3.83;;;1.20;;
48727;SDS011;34527;45.618;5.130;2024-03-23T12:23:32;6.00;;;1.73;;
48727;SDS011;34527;45.618;5.130;2024-03-23T12:25:58;4.05;;;1.27;;
48727;SDS011;34527;45.618;5.130;2024-03-23T12:28:24;6.05;;;1.10;;
48727;SDS011;34527;45.618;5.130;2024-03-23T12:30:50;7.53;;;1.40;;
48727;SDS011;34527;45.618;5.130;2024-03-23T12:33:17;4.40;;;1.23;;
48727;SDS011;34527;45.618;5.130;2024-03-23T12:35:43;5.93;;;1.17;;
48727;SDS011;34527;45.618;5.130;2024-03-23T12:38:08;3.25;;;1.40;;
48727;SDS011;34527;45.618;5.130;2024-03-23T12:40:34;4.88;;;1.30;;
48727;SDS011;34527;45.618;5.130;2024-03-23T12:42:59;2.92;;;1.02;;
48727;SDS011;34527;45.618;5.130;2024-03-23T12:45:25;5.50;;;1.60;;
48727;SDS011;34527;45.618;5.130;2024-03-23T12:47:51;3.05;;;1.40;;
48727;SDS011;34527;45.618;5.130;2024-03-23T12:50:20;6.70;;;1.90;;
48727;SDS011;34527;45.618;5.130;2024-03-23T12:52:45;6.13;;;1.30;;
48727;SDS011;34527;45.618;5.130;2024-03-23T12:55:11;5.30;;;1.05;;
48727;SDS011;34527;45.618;5.130;2024-03-23T12:57:37;4.78;;;0.90;;
48727;SDS011;34527;45.618;5.130;2024-03-23T13:00:03;4.07;;;1.27;;
48727;SDS011;34527;45.618;5.130;2024-03-23T13:02:29;6.53;;;1.08;;
48727;SDS011;34527;45.618;5.130;2024-03-23T13:04:55;3.47;;;1.02;;
48727;SDS011;34527;45.618;5.130;2024-03-23T13:07:21;1.85;;;0.98;;
48727;SDS011;34527;45.618;5.130;2024-03-23T13:09:51;4.40;;;1.10;;
48727;SDS011;34527;45.618;5.130;2024-03-23T13:12:17;2.92;;;0.95;;
48727;SDS011;34527;45.618;5.130;2024-03-23T13:14:46;3.72;;;1.30;;
48727;SDS011;34527;45.618;5.130;2024-03-23T13:17:12;4.80;;;1.50;;
48727;SDS011;34527;45.618;5.130;2024-03-23T13:19:38;2.80;;;1.27;;
48727;SDS011;34527;45.618;5.130;2024-03-23T13:22:04;3.30;;;1.30;;
48727;SDS011;34527;45.618;5.130;2024-03-23T13:24:30;3.83;;;1.30;;
48727;SDS011;34527;45.618;5.130;2024-03-23T13:26:56;3.00;;;1.23;;
48727;SDS011;34527;45.618;5.130;2024-03-23T13:29:23;5.93;;;1.35;;
48727;SDS011;34527;45.618;5.130;2024-03-23T13:31:49;2.83;;;1.45;;
48727;SDS011;34527;45.618;5.130;2024-03-23T13:34:16;5.55;;;1.50;;
48727;SDS011;34527;45.618;5.130;2024-03-23T13:36:42;5.35;;;1.27;;
48727;SDS011;34527;45.618;5.130;2024-03-23T13:39:12;6.72;;;1.85;;
48727;SDS011;34527;45.618;5.130;2024-03-23T13:41:39;5.82;;;1.90;;
48727;SDS011;34527;45.618;5.130;2024-03-23T13:46:39;1.75;;;1.20;;
48727;SDS011;34527;45.618;5.130;2024-03-23T13:49:13;6.55;;;1.77;;
48727;SDS011;34527;45.618;5.130;2024-03-23T13:51:54;5.82;;;1.40;;
48727;SDS011;34527;45.618;5.130;2024-03-23T13:54:21;6.45;;;1.50;;
48727;SDS011;34527;45.618;5.130;2024-03-23T13:56:50;3.90;;;1.30;;
48727;SDS011;34527;45.618;5.130;2024-03-23T13:59:16;4.72;;;1.50;;
48727;SDS011;34527;45.618;5.130;2024-03-23T14:01:42;2.70;;;1.08;;
48727;SDS011;34527;45.618;5.130;2024-03-23T14:04:09;4.63;;;1.60;;
48727;SDS011;34527;45.618;5.130;2024-03-23T14:06:35;4.47;;;1.42;;
48727;SDS011;34527;45.618;5.130;2024-03-23T14:09:01;2.33;;;1.08;;
48727;SDS011;34527;45.618;5.130;2024-03-23T14:11:28;9.10;;;2.05;;
48727;SDS011;34527;45.618;5.130;2024-03-23T14:13:54;6.03;;;1.13;;
48727;SDS011;34527;45.618;5.130;2024-03-23T14:16:20;5.63;;;1.17;;
48727;SDS011;34527;45.618;5.130;2024-03-23T14:18:48;4.35;;;1.52;;
48727;SDS011;34527;45.618;5.130;2024-03-23T14:21:14;5.28;;;1.38;;
48727;SDS011;34527;45.618;5.130;2024-03-23T14:23:39;4.38;;;1.30;;
48727;SDS011;34527;45.618;5.130;2024-03-23T14:26:08;3.17;;;1.13;;
48727;SDS011;34527;45.618;5.130;2024-03-23T14:28:33;4.13;;;1.20;;
48727;SDS011;34527;45.618;5.130;2024-03-23T14:31:00;5.05;;;1.70;;
48727;SDS011;34527;45.618;5.130;2024-03-23T14:33:26;4.22;;;1.65;;
48727;SDS011;34527;45.618;5.130;2024-03-23T14:35:52;4.80;;;1.60;;
48727;SDS011;34527;45.618;5.130;2024-03-23T14:38:18;5.45;;;1.50;;
48727;SDS011;34527;45.618;5.130;2024-03-23T14:40:45;5.00;;;1.48;;
48727;SDS011;34527;45.618;5.130;2024-03-23T14:43:11;4.80;;;2.05;;
48727;SDS011;34527;45.618;5.130;2024-03-23T14:45:36;5.72;;;1.77;;
48727;SDS011;34527;45.618;5.130;2024-03-23T14:48:02;5.75;;;1.63;;
48727;SDS011;34527;45.618;5.130;2024-03-23T14:50:28;3.70;;;1.20;;
48727;SDS011;34527;45.618;5.130;2024-03-23T14:52:53;5.93;;;1.88;;
48727;SDS011;34527;45.618;5.130;2024-03-23T14:55:19;6.90;;;1.70;;
48727;SDS011;34527;45.618;5.130;2024-03-23T14:57:44;4.70;;;1.48;;
48727;SDS011;34527;45.618;5.130;2024-03-23T15:00:10;8.85;;;1.90;;
48727;SDS011;34527;45.618;5.130;2024-03-23T15:02:37;4.63;;;1.63;;
48727;SDS011;34527;45.618;5.130;2024-03-23T15:05:03;4.35;;;1.63;;
48727;SDS011;34527;45.618;5.130;2024-03-23T15:07:30;6.13;;;1.50;;
48727;SDS011;34527;45.618;5.130;2024-03-23T15:09:56;6.00;;;1.30;;
48727;SDS011;34527;45.618;5.130;2024-03-23T15:12:21;5.68;;;1.65;;
48727;SDS011;34527;45.618;5.130;2024-03-23T15:14:47;8.23;;;1.48;;
48727;SDS011;34527;45.618;5.130;2024-03-23T15:17:13;5.00;;;1.13;;
48727;SDS011;34527;45.618;5.130;2024-03-23T15:19:39;5.63;;;1.30;;
48727;SDS011;34527;45.618;5.130;2024-03-23T15:22:06;5.22;;;1.45;;
48727;SDS011;34527;45.618;5.130;2024-03-23T15:24:32;5.38;;;1.40;;
48727;SDS011;34527;45.618;5.130;2024-03-23T15:27:00;4.95;;;1.13;;
48727;SDS011;34527;45.618;5.130;2024-03-23T15:29:25;5.95;;;1.77;;
48727;SDS011;34527;45.618;5.130;2024-03-23T15:31:51;5.10;;;1.48;;
48727;SDS011;34527;45.618;5.130;2024-03-23T15:34:18;4.28;;;1.40;;
48727;SDS011;34527;45.618;5.130;2024-03-23T15:36:46;5.97;;;1.70;;
48727;SDS011;34527;45.618;5.130;2024-03-23T15:39:14;3.95;;;1.33;;
48727;SDS011;34527;45.618;5.130;2024-03-23T15:41:40;4.03;;;1.35;;
48727;SDS011;34527;45.618;5.130;2024-03-23T15:44:05;3.65;;;1.10;;
48727;SDS011;34527;45.618;5.130;2024-03-23T15:46:31;5.45;;;1.40;;
48727;SDS011;34527;45.618;5.130;2024-03-23T15:48:57;4.05;;;1.40;;
48727;SDS011;34527;45.618;5.130;2024-03-23T15:51:22;4.18;;;1.17;;
48727;SDS011;34527;45.618;5.130;2024-03-23T15:53:48;4.95;;;1.85;;